Terminal Aerodrome Forecast
Issued by NWS Quad Cities IA IL

Home | Current Version | Previous Version | Text Only | Print | Product List | Glossary On
Versions: 1 2 3 4 5 6 7 8 9 10 11 12 13 14 15 16
908
FTUS43 KDVN 031120
TAFMLI
TAF
KMLI 031120Z 0312/0412 27004KT P6SM SKC
     FM031500 27009KT P6SM FEW250
     FM031900 28011G17KT P6SM SCT250
     FM040100 27010KT P6SM BKN100 PROB30 0402/0406 5SM -SHRA BKN050
     FM040700 32011KT P6SM SKC=

USA.gov is the U.S. government's official web portal to all federal, state and local government web resources and services.